createdAt,value
2018-08-03T00:01:59.370Z,3.38
2018-08-03T00:11:55.318Z,3.38
2018-08-03T00:21:53.797Z,3.37
2018-08-03T00:31:51.056Z,3.37
2018-08-03T00:41:47.724Z,3.37
2018-08-03T00:51:47.033Z,3.37
2018-08-03T01:01:44.963Z,3.37
2018-08-03T01:11:41.987Z,3.37
2018-08-03T01:21:40.706Z,3.37
2018-08-03T01:31:38.601Z,3.37
2018-08-03T01:41:33.818Z,3.37
2018-08-03T01:51:33.784Z,3.37
2018-08-03T02:01:29.398Z,3.37
2018-08-03T02:11:27.803Z,3.36
2018-08-03T02:21:23.212Z,3.36
2018-08-03T02:31:19.219Z,3.36
2018-08-03T02:41:16.409Z,3.36
2018-08-03T02:51:13.623Z,3.36
2018-08-03T03:01:09.629Z,3.36
2018-08-03T03:11:04.947Z,3.36
2018-08-03T03:21:04.381Z,3.36
2018-08-03T03:31:02.633Z,3.36
2018-08-03T03:41:01.505Z,3.36
2018-08-03T03:50:59.944Z,3.36
2018-08-03T04:00:54.734Z,3.36
2018-08-03T04:10:52.071Z,3.36
2018-08-03T04:20:50.883Z,3.36
2018-08-03T04:30:49.034Z,3.36
2018-08-03T04:40:45.313Z,3.37
2018-08-03T04:50:42.336Z,3.37
2018-08-03T05:00:39.760Z,3.38
2018-08-03T05:10:36.790Z,3.39
2018-08-03T05:20:35.036Z,3.39
2018-08-03T05:30:33.801Z,3.40
2018-08-03T05:40:28.497Z,3.40
2018-08-03T05:50:26.969Z,3.41
2018-08-03T06:00:26.599Z,3.41
2018-08-03T06:10:24.581Z,3.41
2018-08-03T06:20:21.678Z,3.41
2018-08-03T06:30:18.811Z,3.42
2018-08-03T06:40:17.020Z,3.43
2018-08-03T06:50:13.785Z,3.43
2018-08-03T07:00:10.424Z,3.44
2018-08-03T07:10:06.958Z,3.44
2018-08-03T07:20:03.007Z,3.45
2018-08-03T07:30:00.842Z,3.46
2018-08-03T07:39:57.695Z,3.44
2018-08-03T07:49:53.087Z,3.43
2018-08-03T07:59:52.013Z,3.43
2018-08-03T08:09:49.264Z,3.43
2018-08-03T08:19:47.671Z,3.43
2018-08-03T08:29:45.182Z,3.43
2018-08-03T08:39:40.044Z,3.43
2018-08-03T08:49:39.285Z,3.42
2018-08-03T08:59:35.912Z,3.42
2018-08-03T09:09:32.377Z,3.42
2018-08-03T09:19:31.655Z,3.42
2018-08-03T09:29:29.316Z,3.42
2018-08-03T09:39:25.218Z,3.42
2018-08-03T09:49:22.766Z,3.42
2018-08-03T09:59:20.784Z,3.42
2018-08-03T10:09:19.706Z,3.42
2018-08-03T10:19:17.426Z,3.42
2018-08-03T10:29:15.277Z,3.41
2018-08-03T10:39:07.427Z,3.41
2018-08-03T10:49:03.098Z,3.43
2018-08-03T10:59:00.243Z,3.45
2018-08-03T11:09:00.024Z,3.43
2018-08-03T11:18:56.833Z,3.43
2018-08-03T11:28:50.198Z,3.42
2018-08-03T11:38:44.960Z,3.42
2018-08-03T11:48:39.467Z,3.43
2018-08-03T11:58:36.833Z,3.44
2018-08-03T12:08:31.246Z,3.44
2018-08-03T12:18:30.148Z,3.45
2018-08-03T12:28:24.782Z,3.44
2018-08-03T12:38:19.959Z,3.43
2018-08-03T12:48:15.992Z,3.43
2018-08-03T12:58:12.655Z,3.43
2018-08-03T13:08:08.938Z,3.43
2018-08-03T13:18:03.197Z,3.42
2018-08-03T13:29:04.986Z,3.42
2018-08-03T13:40:07.024Z,3.42
2018-08-03T13:51:08.251Z,3.45
2018-08-03T14:02:10.086Z,3.43
2018-08-03T14:13:12.304Z,3.43
2018-08-03T14:24:15.346Z,3.42
2018-08-03T14:35:17.085Z,3.42
2018-08-03T14:46:19.361Z,3.42
2018-08-03T14:57:20.400Z,3.41
2018-08-03T15:08:20.807Z,3.41
2018-08-03T15:19:16.738Z,3.42
2018-08-03T15:30:18.603Z,3.42
2018-08-03T15:41:18.819Z,3.41
2018-08-03T15:52:19.302Z,3.41
2018-08-03T16:03:20.296Z,3.43
2018-08-03T16:14:22.466Z,3.42
2018-08-03T16:25:24.825Z,3.42
2018-08-03T16:36:23.592Z,3.41
2018-08-03T16:47:24.209Z,3.41
2018-08-03T16:58:25.747Z,3.44
2018-08-03T17:09:27.591Z,3.44
2018-08-03T17:20:28.976Z,3.44
2018-08-03T17:31:25.627Z,3.44
2018-08-03T17:42:24.452Z,3.44
2018-08-03T17:53:23.213Z,3.43
2018-08-03T18:04:24.553Z,3.43
2018-08-03T18:15:20.065Z,3.42
2018-08-03T18:26:07.459Z,3.41
2018-08-03T18:37:01.182Z,3.41
2018-08-03T18:47:58.103Z,3.40
2018-08-03T18:58:54.988Z,3.40
2018-08-03T19:09:53.431Z,3.40
2018-08-03T19:20:48.134Z,3.40
2018-08-03T19:31:44.910Z,3.39
2018-08-03T19:42:43.400Z,3.39
2018-08-03T19:53:41.282Z,3.39
2018-08-03T20:04:37.934Z,3.39
2018-08-03T20:15:38.230Z,3.38
2018-08-03T20:26:38.849Z,3.38
2018-08-03T20:37:37.056Z,3.38
2018-08-03T20:48:37.943Z,3.38
2018-08-03T20:59:38.042Z,3.37
2018-08-03T21:10:38.187Z,3.37
2018-08-03T21:21:38.250Z,3.37
2018-08-03T21:32:39.499Z,3.37
2018-08-03T21:43:38.348Z,3.37
2018-08-03T21:54:40.821Z,3.36
2018-08-03T22:05:42.205Z,3.36
2018-08-03T22:16:44.890Z,3.36
2018-08-03T22:27:47.198Z,3.36
2018-08-03T22:38:50.071Z,3.36
2018-08-03T22:49:53.854Z,3.35
2018-08-03T23:00:57.734Z,3.35
2018-08-03T23:12:00.242Z,3.35
2018-08-03T23:23:03.542Z,3.34
2018-08-03T23:34:05.544Z,3.34
2018-08-03T23:45:07.814Z,3.34
2018-08-03T23:56:10.627Z,3.34
